createdAt,value
2022-11-23T00:01:13.144Z,7.00
2022-11-23T00:03:39.940Z,7.00
2022-11-23T00:06:06.912Z,7.00
2022-11-23T00:08:33.626Z,7.00
2022-11-23T00:11:00.501Z,6.90
2022-11-23T00:13:27.273Z,6.90
2022-11-23T00:15:54.054Z,6.90
2022-11-23T00:18:20.772Z,6.90
2022-11-23T00:20:47.548Z,6.80
2022-11-23T00:23:14.289Z,6.80
2022-11-23T00:25:44.056Z,6.80
2022-11-23T00:28:10.825Z,6.80
2022-11-23T00:30:38.104Z,6.90
2022-11-23T00:33:05.301Z,6.80
2022-11-23T00:35:32.096Z,6.80
2022-11-23T00:38:01.236Z,6.80
2022-11-23T00:40:28.157Z,6.80
2022-11-23T00:42:54.961Z,6.80
2022-11-23T00:45:22.423Z,6.90
2022-11-23T00:47:49.201Z,6.90
2022-11-23T00:50:16.198Z,7.00
2022-11-23T00:52:42.919Z,7.10
2022-11-23T00:55:09.830Z,7.10
2022-11-23T00:57:37.520Z,7.10
2022-11-23T01:00:06.396Z,7.20
2022-11-23T01:02:34.769Z,7.20
2022-11-23T01:05:02.182Z,7.20
2022-11-23T01:07:30.642Z,7.20
2022-11-23T01:09:57.861Z,7.20
2022-11-23T01:12:24.590Z,7.30
2022-11-23T01:14:53.126Z,7.30
2022-11-23T01:17:22.109Z,7.30
2022-11-23T01:19:48.869Z,7.30
2022-11-23T01:22:15.655Z,7.30
2022-11-23T01:24:42.448Z,7.30
2022-11-23T01:27:09.208Z,7.20
2022-11-23T01:29:36.002Z,7.20
2022-11-23T01:32:02.879Z,7.20
2022-11-23T01:34:29.712Z,7.20
2022-11-23T01:36:59.139Z,7.20
2022-11-23T01:39:27.900Z,7.10
2022-11-23T01:41:55.650Z,7.10
2022-11-23T01:44:24.284Z,7.10
2022-11-23T01:46:54.578Z,7.10
2022-11-23T01:49:22.559Z,7.10
2022-11-23T01:51:50.816Z,7.10
2022-11-23T01:54:19.729Z,7.10
2022-11-23T01:56:48.306Z,7.10
2022-11-23T01:59:16.600Z,7.10
2022-11-23T02:01:44.040Z,7.20
2022-11-23T02:04:13.298Z,7.20
2022-11-23T02:06:45.172Z,7.20
2022-11-23T02:09:12.655Z,7.20
2022-11-23T02:11:39.515Z,7.20
2022-11-23T02:14:06.294Z,7.20
2022-11-23T02:16:33.333Z,7.20
2022-11-23T02:19:00.180Z,7.20
2022-11-23T02:21:26.998Z,7.20
2022-11-23T02:24:09.063Z,7.20
2022-11-23T02:26:37.021Z,7.20
2022-11-23T02:29:04.345Z,7.20
2022-11-23T02:31:31.424Z,7.20
2022-11-23T02:33:58.174Z,7.20
2022-11-23T02:36:45.032Z,7.20
2022-11-23T02:39:30.898Z,7.20
2022-11-23T02:41:58.338Z,7.20
2022-11-23T02:44:40.397Z,7.20
2022-11-23T02:47:07.988Z,7.30
2022-11-23T02:49:35.175Z,7.30
2022-11-23T02:52:02.722Z,7.30
2022-11-23T02:54:30.012Z,7.30
2022-11-23T02:56:57.683Z,7.30
2022-11-23T02:59:24.516Z,7.30
2022-11-23T03:01:54.321Z,7.30
2022-11-23T03:04:27.354Z,7.30
2022-11-23T03:07:07.276Z,7.30
2022-11-23T03:09:34.927Z,7.40
2022-11-23T03:12:02.695Z,7.40
2022-11-23T03:14:29.585Z,7.40
2022-11-23T03:16:59.796Z,7.40
2022-11-23T03:19:30.113Z,7.40
2022-11-23T03:21:57.229Z,7.40
2022-11-23T03:24:23.948Z,7.40
2022-11-23T03:26:52.667Z,7.40
2022-11-23T03:29:20.421Z,7.40
2022-11-23T03:31:47.851Z,7.40
2022-11-23T03:34:17.256Z,7.40
2022-11-23T03:36:45.010Z,7.40
2022-11-23T03:39:13.089Z,7.40
2022-11-23T03:41:58.303Z,7.50
2022-11-23T03:44:31.148Z,7.40
2022-11-23T03:46:58.629Z,7.40
2022-11-23T03:49:27.031Z,7.30
2022-11-23T03:51:53.851Z,7.20
2022-11-23T03:54:20.644Z,7.20
2022-11-23T03:56:48.365Z,7.20
2022-11-23T03:59:15.881Z,7.20
2022-11-23T04:01:42.749Z,7.20
2022-11-23T04:04:18.991Z,7.20
2022-11-23T04:07:01.101Z,7.20
2022-11-23T04:09:32.965Z,7.30
2022-11-23T04:12:05.841Z,7.30
2022-11-23T04:14:35.048Z,7.30
2022-11-23T04:17:04.815Z,7.30
2022-11-23T04:19:33.139Z,7.30
2022-11-23T04:22:00.288Z,7.40
2022-11-23T04:24:30.606Z,7.30
2022-11-23T04:26:59.801Z,7.40
2022-11-23T04:29:26.729Z,7.40
2022-11-23T04:31:54.697Z,7.40
2022-11-23T04:34:22.205Z,7.40
2022-11-23T04:36:51.257Z,7.40
2022-11-23T04:39:21.588Z,7.40
2022-11-23T04:42:14.539Z,7.30
2022-11-23T04:44:47.712Z,7.30
2022-11-23T04:47:14.882Z,7.20
2022-11-23T04:49:43.449Z,7.30
2022-11-23T04:52:10.367Z,7.30
2022-11-23T04:54:44.152Z,7.30
2022-11-23T04:57:11.622Z,7.20
2022-11-23T04:59:39.304Z,7.10
2022-11-23T05:02:06.425Z,7.20
2022-11-23T05:04:55.993Z,7.10
2022-11-23T05:07:27.729Z,7.20
2022-11-23T05:09:58.991Z,7.10
2022-11-23T05:12:27.335Z,7.10
2022-11-23T05:14:54.199Z,7.10
2022-11-23T05:17:26.443Z,7.00
2022-11-23T05:19:56.201Z,6.90
2022-11-23T05:22:25.240Z,7.00
2022-11-23T05:24:53.166Z,7.00
2022-11-23T05:27:22.946Z,6.90
2022-11-23T05:29:50.199Z,6.90
2022-11-23T05:32:17.126Z,6.90
2022-11-23T05:34:43.908Z,6.70
2022-11-23T05:37:13.574Z,6.70
2022-11-23T05:39:51.797Z,6.70
2022-11-23T05:42:19.871Z,6.60
2022-11-23T05:44:50.026Z,6.60
2022-11-23T05:47:22.172Z,6.50
2022-11-23T05:49:50.415Z,6.40
2022-11-23T05:52:25.724Z,6.50
2022-11-23T05:54:52.571Z,6.40
2022-11-23T05:57:22.494Z,6.40
2022-11-23T05:59:50.492Z,6.40
2022-11-23T06:02:24.445Z,6.40
2022-11-23T06:04:55.838Z,6.40
2022-11-23T06:07:34.515Z,6.30
2022-11-23T06:10:07.274Z,6.30
2022-11-23T06:12:37.333Z,6.30
2022-11-23T06:15:07.664Z,6.40
2022-11-23T06:17:35.580Z,6.40
2022-11-23T06:20:07.432Z,6.40
2022-11-23T06:22:36.784Z,6.50
2022-11-23T06:25:05.978Z,6.50
2022-11-23T06:27:41.090Z,6.70
2022-11-23T06:30:18.765Z,6.70
2022-11-23T06:32:48.075Z,6.80
2022-11-23T06:35:16.651Z,6.90
2022-11-23T06:37:44.408Z,7.00
2022-11-23T06:40:12.555Z,6.90
2022-11-23T06:42:40.591Z,6.90
2022-11-23T06:45:17.164Z,6.90
2022-11-23T06:47:44.951Z,6.90
2022-11-23T06:50:11.893Z,6.90
2022-11-23T06:52:39.234Z,6.90
2022-11-23T06:55:06.139Z,6.90
2022-11-23T06:57:33.088Z,6.90
2022-11-23T07:00:00.273Z,6.80
2022-11-23T07:02:33.257Z,6.90
2022-11-23T07:05:01.014Z,6.80
2022-11-23T07:07:30.132Z,6.80
2022-11-23T07:10:07.240Z,6.80
2022-11-23T07:12:53.933Z,6.80
2022-11-23T07:15:22.446Z,6.80
2022-11-23T07:17:51.271Z,6.80
2022-11-23T07:20:20.305Z,6.80
2022-11-23T07:22:47.425Z,6.80
2022-11-23T07:25:19.008Z,6.90
2022-11-23T07:27:45.809Z,6.90
2022-11-23T07:30:13.047Z,7.00
2022-11-23T07:32:39.876Z,7.00
2022-11-23T07:35:06.818Z,7.00
2022-11-23T07:37:36.874Z,7.10
2022-11-23T07:40:05.162Z,7.10
2022-11-23T07:42:38.398Z,7.10
2022-11-23T07:45:08.420Z,7.10
2022-11-23T07:47:37.789Z,7.20
2022-11-23T07:50:05.957Z,7.20
2022-11-23T07:52:32.872Z,7.20
2022-11-23T07:55:01.005Z,7.30
2022-11-23T07:57:27.800Z,7.30
2022-11-23T07:59:54.533Z,7.30
2022-11-23T08:02:21.394Z,7.40
2022-11-23T08:04:48.345Z,7.40
2022-11-23T08:07:15.140Z,7.40
2022-11-23T08:09:41.967Z,7.40
2022-11-23T08:12:08.789Z,7.40
2022-11-23T08:14:35.781Z,7.50
2022-11-23T08:17:02.763Z,7.50
2022-11-23T08:19:29.561Z,7.60
2022-11-23T08:21:56.344Z,7.60
2022-11-23T08:24:23.063Z,7.70
2022-11-23T08:26:49.936Z,7.70
2022-11-23T08:29:16.782Z,7.70
2022-11-23T08:31:43.872Z,7.80
2022-11-23T08:34:10.897Z,7.80
2022-11-23T08:36:37.674Z,7.90
2022-11-23T08:39:04.554Z,7.90
2022-11-23T08:41:31.355Z,7.90
2022-11-23T08:43:58.159Z,8.00
2022-11-23T08:46:25.026Z,8.00
2022-11-23T08:48:51.801Z,8.00
2022-11-23T08:51:22.663Z,8.00
2022-11-23T08:53:50.118Z,8.10
2022-11-23T08:56:16.997Z,8.10
2022-11-23T08:58:43.809Z,8.20
2022-11-23T09:01:11.667Z,8.20
2022-11-23T09:03:38.742Z,8.20
2022-11-23T09:06:05.654Z,8.20
2022-11-23T09:08:32.455Z,8.20
2022-11-23T09:11:03.204Z,8.30
2022-11-23T09:13:30.067Z,8.30
2022-11-23T09:15:57.733Z,8.40
2022-11-23T09:18:24.786Z,8.50
2022-11-23T09:20:51.578Z,8.50
2022-11-23T09:23:18.426Z,8.60
2022-11-23T09:25:48.389Z,8.60
2022-11-23T09:28:15.371Z,8.60
2022-11-23T09:30:42.198Z,8.50
2022-11-23T09:33:08.975Z,8.50
2022-11-23T09:35:40.758Z,8.60
2022-11-23T09:38:10.385Z,8.60
2022-11-23T09:40:38.343Z,8.50
2022-11-23T09:43:17.353Z,8.50
2022-11-23T09:45:49.316Z,8.50
2022-11-23T09:48:31.203Z,8.60
2022-11-23T09:51:04.135Z,8.60
2022-11-23T09:53:42.924Z,8.70
2022-11-23T09:56:17.497Z,8.70
2022-11-23T09:58:44.349Z,8.80
2022-11-23T10:01:15.564Z,8.90
2022-11-23T10:03:48.553Z,9.00
2022-11-23T10:06:16.038Z,9.00
2022-11-23T10:08:45.721Z,9.00
2022-11-23T10:11:24.664Z,9.10
2022-11-23T10:13:54.262Z,9.20
2022-11-23T10:16:33.409Z,9.30
2022-11-23T10:19:14.499Z,9.50
2022-11-23T10:21:59.469Z,9.60
2022-11-23T10:24:32.500Z,9.50
2022-11-23T10:26:59.459Z,9.50
2022-11-23T10:29:34.158Z,9.50
2022-11-23T10:32:01.170Z,9.60
2022-11-23T10:34:46.370Z,9.50
2022-11-23T10:37:14.467Z,9.70
2022-11-23T10:39:41.354Z,10.20
2022-11-23T10:42:21.080Z,10.90
2022-11-23T10:44:49.532Z,11.20
2022-11-23T10:47:34.591Z,11.40
2022-11-23T10:50:01.471Z,11.70
2022-11-23T10:52:29.381Z,11.80
2022-11-23T10:54:57.264Z,11.90
2022-11-23T10:57:30.074Z,11.80
2022-11-23T10:59:58.586Z,11.80
2022-11-23T11:02:25.398Z,11.80
2022-11-23T11:05:12.085Z,11.70
2022-11-23T11:07:39.347Z,11.90
2022-11-23T11:10:06.518Z,12.00
2022-11-23T11:12:34.742Z,12.00
2022-11-23T11:15:11.338Z,12.00
2022-11-23T11:17:39.734Z,12.20
2022-11-23T11:20:25.360Z,12.40
2022-11-23T11:22:52.647Z,12.40
2022-11-23T11:25:27.408Z,12.20
2022-11-23T11:27:54.264Z,12.10
2022-11-23T11:30:22.554Z,12.00
2022-11-23T11:32:54.965Z,11.90
2022-11-23T11:35:41.988Z,12.00
2022-11-23T11:38:15.185Z,12.10
2022-11-23T11:40:49.234Z,12.30
2022-11-23T11:43:19.375Z,12.20
2022-11-23T11:46:13.080Z,12.30
2022-11-23T11:48:39.877Z,12.50
2022-11-23T11:51:10.727Z,12.40
2022-11-23T11:53:48.110Z,12.60
2022-11-23T11:56:33.680Z,12.70
2022-11-23T11:59:10.865Z,12.60
2022-11-23T12:01:44.759Z,12.40
2022-11-23T12:04:19.001Z,12.50
2022-11-23T12:06:53.223Z,12.30
2022-11-23T12:09:23.162Z,12.40
2022-11-23T12:11:50.098Z,12.60
2022-11-23T12:14:17.141Z,12.70
2022-11-23T12:16:43.938Z,12.70
2022-11-23T12:19:22.102Z,12.90
2022-11-23T12:21:58.988Z,13.00
2022-11-23T12:24:37.746Z,12.90
2022-11-23T12:27:14.026Z,12.60
2022-11-23T12:29:45.740Z,12.60
2022-11-23T12:32:24.604Z,12.60
2022-11-23T12:35:03.561Z,12.70
2022-11-23T12:37:30.756Z,12.60
2022-11-23T12:39:57.852Z,12.50
2022-11-23T12:42:43.459Z,12.50
2022-11-23T12:45:16.162Z,12.50
2022-11-23T12:47:42.947Z,12.40
2022-11-23T12:50:10.354Z,12.00
2022-11-23T12:52:58.000Z,11.60
2022-11-23T12:55:24.804Z,11.50
2022-11-23T12:58:11.938Z,11.20
2022-11-23T13:00:59.103Z,10.80
2022-11-23T13:03:41.284Z,11.00
2022-11-23T13:06:20.295Z,11.40
2022-11-23T13:08:54.515Z,11.60
2022-11-23T13:11:33.800Z,11.80
2022-11-23T13:14:12.901Z,11.70
2022-11-23T13:16:58.586Z,11.60
2022-11-23T13:19:25.484Z,11.70
2022-11-23T13:21:52.259Z,11.40
2022-11-23T13:24:25.246Z,11.20
2022-11-23T13:27:15.041Z,11.10
2022-11-23T13:29:50.958Z,10.90
2022-11-23T13:32:36.321Z,10.50
2022-11-23T13:35:03.220Z,10.40
2022-11-23T13:37:30.177Z,10.40
2022-11-23T13:40:00.258Z,10.60
2022-11-23T13:42:27.703Z,10.60
2022-11-23T13:45:24.100Z,10.50
2022-11-23T13:48:06.277Z,10.50
2022-11-23T13:50:33.411Z,10.50
2022-11-23T13:53:00.569Z,10.10
2022-11-23T13:55:34.358Z,9.90
2022-11-23T13:58:19.786Z,9.70
2022-11-23T14:00:47.111Z,9.50
2022-11-23T14:03:32.606Z,9.40
2022-11-23T14:06:01.086Z,9.40
2022-11-23T14:08:28.226Z,9.30
2022-11-23T14:10:55.462Z,9.30
2022-11-23T14:13:28.454Z,9.30
2022-11-23T14:15:56.935Z,9.20
2022-11-23T14:18:36.677Z,9.10
2022-11-23T14:21:06.841Z,9.10
2022-11-23T14:23:36.658Z,9.00
2022-11-23T14:26:09.713Z,9.00
2022-11-23T14:28:45.122Z,9.00
2022-11-23T14:31:15.615Z,9.30
2022-11-23T14:33:51.559Z,9.50
2022-11-23T14:36:18.564Z,9.60
2022-11-23T14:38:54.626Z,9.40
2022-11-23T14:41:26.664Z,9.40
2022-11-23T14:43:54.229Z,9.50
2022-11-23T14:46:22.604Z,9.60
2022-11-23T14:48:49.658Z,9.50
2022-11-23T14:51:20.795Z,9.40
2022-11-23T14:53:52.174Z,9.20
2022-11-23T14:56:33.439Z,9.10
2022-11-23T14:59:02.787Z,9.00
2022-11-23T15:01:29.706Z,8.90
2022-11-23T15:03:57.609Z,8.70
2022-11-23T15:06:30.535Z,8.60
2022-11-23T15:09:03.380Z,8.40
2022-11-23T15:11:31.060Z,8.30
2022-11-23T15:14:03.937Z,8.20
2022-11-23T15:16:38.936Z,8.10
2022-11-23T15:19:38.335Z,8.00
2022-11-23T15:22:05.102Z,7.90
2022-11-23T15:24:32.055Z,7.80
2022-11-23T15:27:09.267Z,7.70
2022-11-23T15:29:39.085Z,7.60
2022-11-23T15:32:32.816Z,7.50
2022-11-23T15:35:02.789Z,7.40
2022-11-23T15:37:31.342Z,7.40
2022-11-23T15:39:58.228Z,7.30
2022-11-23T15:42:25.649Z,7.30
2022-11-23T15:44:53.898Z,7.20
2022-11-23T15:47:27.530Z,7.30
2022-11-23T15:50:08.577Z,7.20
2022-11-23T15:52:36.666Z,7.20
2022-11-23T15:55:10.147Z,7.20
2022-11-23T15:57:55.328Z,7.20
2022-11-23T16:00:23.619Z,7.20
2022-11-23T16:02:50.706Z,7.30
2022-11-23T16:05:18.906Z,7.30
2022-11-23T16:08:11.969Z,7.30
2022-11-23T16:10:52.977Z,7.20
2022-11-23T16:13:33.896Z,7.20
2022-11-23T16:16:01.369Z,7.20
2022-11-23T16:18:28.095Z,7.40
2022-11-23T16:20:56.080Z,7.40
2022-11-23T16:23:27.699Z,7.40
2022-11-23T16:26:05.040Z,7.50
2022-11-23T16:28:36.485Z,7.50
2022-11-23T16:31:03.846Z,7.50
2022-11-23T16:33:30.941Z,7.50
2022-11-23T16:35:57.944Z,7.40
2022-11-23T16:38:25.575Z,7.40
2022-11-23T16:40:52.435Z,7.30
2022-11-23T16:43:19.270Z,7.30
2022-11-23T16:45:47.475Z,7.20
2022-11-23T16:48:26.398Z,7.20
2022-11-23T16:50:53.893Z,7.10
2022-11-23T16:53:20.667Z,7.10
2022-11-23T16:55:48.966Z,6.90
2022-11-23T16:58:16.220Z,6.90
2022-11-23T17:00:42.997Z,6.80
2022-11-23T17:03:17.231Z,6.70
2022-11-23T17:05:44.069Z,6.70
2022-11-23T17:08:10.884Z,6.70
2022-11-23T17:10:38.351Z,6.60
2022-11-23T17:13:06.929Z,6.60
2022-11-23T17:15:33.692Z,6.50
2022-11-23T17:18:00.505Z,6.40
2022-11-23T17:20:27.573Z,6.40
2022-11-23T17:23:00.007Z,6.50
2022-11-23T17:25:26.895Z,6.60
2022-11-23T17:27:53.874Z,6.70
2022-11-23T17:30:21.373Z,6.70
2022-11-23T17:32:49.136Z,6.70
2022-11-23T17:35:16.588Z,6.80
2022-11-23T17:37:43.534Z,6.80
2022-11-23T17:40:14.553Z,6.80
2022-11-23T17:42:41.326Z,6.80
2022-11-23T17:45:08.217Z,6.80
2022-11-23T17:47:35.175Z,6.80
2022-11-23T17:50:03.061Z,6.80
2022-11-23T17:52:29.834Z,6.70
2022-11-23T17:54:56.647Z,6.60
2022-11-23T17:57:24.345Z,6.60
2022-11-23T17:59:51.500Z,6.60
2022-11-23T18:02:19.577Z,6.60
2022-11-23T18:04:46.895Z,6.60
2022-11-23T18:07:14.408Z,6.60
2022-11-23T18:09:41.710Z,6.60
2022-11-23T18:12:08.973Z,6.70
2022-11-23T18:14:35.925Z,6.70
2022-11-23T18:17:02.683Z,6.70
2022-11-23T18:19:29.420Z,6.80
2022-11-23T18:21:56.254Z,6.90
2022-11-23T18:24:23.118Z,6.90
2022-11-23T18:26:49.890Z,7.00
2022-11-23T18:29:17.435Z,7.00
2022-11-23T18:31:44.528Z,7.10
2022-11-23T18:34:11.333Z,7.10
2022-11-23T18:36:38.155Z,7.20
2022-11-23T18:39:04.976Z,7.20
2022-11-23T18:41:31.777Z,7.20
2022-11-23T18:43:58.533Z,7.20
2022-11-23T18:46:25.528Z,7.20
2022-11-23T18:48:53.471Z,7.20
2022-11-23T18:51:20.386Z,7.20
2022-11-23T18:53:47.788Z,7.20
2022-11-23T18:56:14.838Z,7.30
2022-11-23T18:58:42.677Z,7.30
2022-11-23T19:01:17.864Z,7.40
2022-11-23T19:03:45.888Z,7.40
2022-11-23T19:06:15.882Z,7.40
2022-11-23T19:08:47.080Z,7.40
2022-11-23T19:11:19.133Z,7.30
2022-11-23T19:13:47.070Z,7.30
2022-11-23T19:16:16.085Z,7.20
2022-11-23T19:18:43.174Z,7.20
2022-11-23T19:21:17.826Z,7.20
2022-11-23T19:23:47.923Z,7.10
2022-11-23T19:26:14.683Z,7.10
2022-11-23T19:28:47.389Z,7.10
2022-11-23T19:31:15.358Z,7.10
2022-11-23T19:33:42.747Z,7.10
2022-11-23T19:36:14.112Z,7.10
2022-11-23T19:38:41.279Z,7.10
2022-11-23T19:41:08.254Z,7.10
2022-11-23T19:43:35.135Z,7.20
2022-11-23T19:46:03.154Z,7.10
2022-11-23T19:48:31.201Z,7.10
2022-11-23T19:51:02.386Z,7.10
2022-11-23T19:53:36.959Z,7.00
2022-11-23T19:56:04.652Z,7.00
2022-11-23T19:58:32.401Z,7.00
2022-11-23T20:01:02.300Z,7.00
2022-11-23T20:03:29.294Z,6.90
2022-11-23T20:05:59.783Z,6.90
2022-11-23T20:08:26.731Z,6.80
2022-11-23T20:10:53.711Z,6.70
2022-11-23T20:13:20.572Z,6.70
2022-11-23T20:15:48.691Z,6.60
2022-11-23T20:18:16.463Z,6.60
2022-11-23T20:20:43.967Z,6.60
2022-11-23T20:23:10.953Z,6.60
2022-11-23T20:25:38.224Z,6.60
2022-11-23T20:28:05.557Z,6.60
2022-11-23T20:30:35.468Z,6.50
2022-11-23T20:33:02.892Z,6.50
2022-11-23T20:35:29.733Z,6.60
2022-11-23T20:37:56.896Z,6.60
2022-11-23T20:40:23.680Z,6.50
2022-11-23T20:42:50.418Z,6.50
2022-11-23T20:45:17.283Z,6.50
2022-11-23T20:47:44.260Z,6.50
2022-11-23T20:50:11.034Z,6.60
2022-11-23T20:52:37.832Z,6.60
2022-11-23T20:55:04.816Z,6.60
2022-11-23T20:57:33.265Z,6.50
2022-11-23T21:00:00.026Z,6.60
2022-11-23T21:02:26.862Z,6.50
2022-11-23T21:04:53.616Z,6.60
2022-11-23T21:07:21.056Z,6.60
2022-11-23T21:09:47.947Z,6.60
2022-11-23T21:12:33.511Z,6.60
2022-11-23T21:15:00.473Z,6.60
2022-11-23T21:17:27.238Z,6.60
2022-11-23T21:19:54.061Z,6.50
2022-11-23T21:22:20.845Z,6.60
2022-11-23T21:24:47.738Z,6.50
2022-11-23T21:27:14.574Z,6.50
2022-11-23T21:29:41.437Z,6.50
2022-11-23T21:32:14.757Z,6.50
2022-11-23T21:34:41.645Z,6.50
2022-11-23T21:37:10.029Z,6.60
2022-11-23T21:39:36.804Z,6.50
2022-11-23T21:42:03.550Z,6.50
2022-11-23T21:44:30.542Z,6.50
2022-11-23T21:46:57.404Z,6.50
2022-11-23T21:49:27.342Z,6.50
2022-11-23T21:51:54.117Z,6.50
2022-11-23T21:54:20.901Z,6.50
2022-11-23T21:56:48.527Z,6.60
2022-11-23T21:59:15.383Z,6.50
2022-11-23T22:01:42.532Z,6.60
2022-11-23T22:04:10.953Z,6.60
2022-11-23T22:06:39.073Z,6.60
2022-11-23T22:09:07.682Z,6.60
2022-11-23T22:11:35.646Z,6.60
2022-11-23T22:14:04.767Z,6.60
2022-11-23T22:16:33.087Z,6.70
2022-11-23T22:19:00.092Z,6.60
2022-11-23T22:21:28.207Z,6.60
2022-11-23T22:23:55.225Z,6.60
2022-11-23T22:26:22.020Z,6.60
2022-11-23T22:28:49.708Z,6.60
2022-11-23T22:31:18.404Z,6.60
2022-11-23T22:33:45.235Z,6.60
2022-11-23T22:36:13.711Z,6.60
2022-11-23T22:38:40.578Z,6.60
2022-11-23T22:41:08.810Z,6.70
2022-11-23T22:43:35.574Z,6.60
2022-11-23T22:46:05.807Z,6.60
2022-11-23T22:48:35.381Z,6.60
2022-11-23T22:51:02.545Z,6.60
2022-11-23T22:53:29.945Z,6.60
2022-11-23T22:56:01.768Z,6.60
2022-11-23T22:58:29.208Z,6.60
2022-11-23T23:00:56.418Z,6.60
2022-11-23T23:03:23.574Z,6.60
2022-11-23T23:05:53.876Z,6.60
2022-11-23T23:08:20.746Z,6.60
2022-11-23T23:10:47.596Z,6.60
2022-11-23T23:13:14.328Z,6.60
2022-11-23T23:15:41.058Z,6.50
2022-11-23T23:18:07.874Z,6.60
2022-11-23T23:20:35.295Z,6.60
2022-11-23T23:23:02.013Z,6.50
2022-11-23T23:25:28.798Z,6.50
2022-11-23T23:27:55.770Z,6.50
2022-11-23T23:30:22.493Z,6.50
2022-11-23T23:32:49.292Z,6.60
2022-11-23T23:35:16.039Z,6.50
2022-11-23T23:37:42.871Z,6.60
2022-11-23T23:40:10.016Z,6.60
2022-11-23T23:42:36.777Z,6.60
2022-11-23T23:45:03.590Z,6.60
2022-11-23T23:47:30.862Z,6.60
2022-11-23T23:49:57.631Z,6.60
2022-11-23T23:52:24.367Z,6.80
2022-11-23T23:54:51.141Z,6.80
2022-11-23T23:57:17.926Z,6.80
2022-11-23T23:59:44.776Z,6.90
